Time;durP1;ratioP1;P1;durP2;ratioP2;P2;SDS_P1;SDS_P2;PMS_P1;PMS_P2;Temp;Humidity;BMP_temperature;BMP_pressure;BME280_temperature;BME280_humidity;BME280_pressure;Samples;Min_cycle;Max_cycle;Signal;HPM_P1;HPM_P2
2021/09/17 00:01:14;;;;;;;12.33;4.70;;;;;;;17.90;62.36;100502.55;126358;1097;104258;-79
2021/09/17 00:03:45;;;;;;;12.93;4.63;;;;;;;17.88;62.46;100494.58;126319;1099;104328;-79
2021/09/17 00:06:15;;;;;;;16.10;4.80;;;;;;;17.89;62.46;100488.41;126340;1099;104355;-79
2021/09/17 00:08:46;;;;;;;11.80;4.80;;;;;;;17.90;62.36;100490.20;126337;1097;104156;-80
2021/09/17 00:11:17;;;;;;;17.53;4.70;;;;;;;17.91;62.65;100486.64;126369;1099;104210;-80
2021/09/17 00:13:49;;;;;;;13.07;4.80;;;;;;;17.93;62.80;100484.87;126337;1099;104152;-78
2021/09/17 00:16:20;;;;;;;10.33;4.37;;;;;;;17.98;62.82;100484.89;126302;1099;104140;-78
2021/09/17 00:18:50;;;;;;;16.10;5.30;;;;;;;18.00;63.11;100492.86;126291;1099;104184;-79
2021/09/17 00:21:21;;;;;;;10.93;4.87;;;;;;;17.99;62.86;100491.11;126358;1099;104140;-78
2021/09/17 00:23:52;;;;;;;13.23;4.80;;;;;;;17.99;62.99;100491.11;126345;1099;104595;-78
2021/09/17 00:26:22;;;;;;;11.80;4.40;;;;;;;17.99;63.13;100488.45;126315;1099;104162;-78
2021/09/17 00:28:53;;;;;;;12.77;4.73;;;;;;;17.99;63.09;100493.77;126282;1099;104293;-78
2021/09/17 00:31:24;;;;;;;10.10;4.47;;;;;;;17.98;63.20;100492.86;126373;1099;104303;-79
2021/09/17 00:33:54;;;;;;;12.57;4.37;;;;;;;17.99;63.30;100497.30;126262;1099;104245;-80
2021/09/17 00:36:25;;;;;;;16.73;4.80;;;;;;;18.00;63.29;100490.21;126360;1099;104139;-77
2021/09/17 00:38:56;;;;;;;13.30;4.63;;;;;;;18.00;63.36;100484.91;126272;1099;105424;-79
2021/09/17 00:41:27;;;;;;;10.20;4.90;;;;;;;18.03;63.45;100490.23;126270;1098;104149;-78
2021/09/17 00:43:58;;;;;;;12.73;4.40;;;;;;;18.02;63.42;100484.04;126311;1099;104143;-80
2021/09/17 00:46:29;;;;;;;11.50;5.03;;;;;;;18.04;63.61;100486.70;126372;1099;104297;-79
2021/09/17 00:49:00;;;;;;;13.93;4.97;;;;;;;18.05;63.48;100478.75;126311;1099;104169;-80
2021/09/17 00:51:31;;;;;;;10.95;4.75;;;;;;;18.06;63.79;100485.84;126360;1097;104214;-79
2021/09/17 00:54:02;;;;;;;9.30;4.83;;;;;;;18.05;63.61;100484.05;126343;1099;104188;-79
2021/09/17 00:56:33;;;;;;;10.03;4.63;;;;;;;18.04;63.65;100481.39;126348;1099;104236;-80
2021/09/17 00:59:04;;;;;;;9.87;4.60;;;;;;;18.04;63.75;100476.96;126276;1098;105502;-80
2021/09/17 01:01:36;;;;;;;15.90;5.27;;;;;;;18.04;63.80;100476.09;126346;1098;104248;-79
2021/09/17 01:04:07;;;;;;;14.40;5.50;;;;;;;18.03;63.98;100475.20;126365;1099;104340;-79
2021/09/17 01:06:40;;;;;;;13.60;4.63;;;;;;;18.02;64.03;100477.86;126323;1099;104303;-77
2021/09/17 01:09:11;;;;;;;11.77;4.73;;;;;;;18.00;64.09;100475.19;126309;1099;104149;-80
2021/09/17 01:11:43;;;;;;;15.20;5.00;;;;;;;17.99;64.03;100475.19;126321;1099;104248;-79
2021/09/17 01:14:14;;;;;;;14.17;5.10;;;;;;;17.95;64.22;100461.89;126360;1099;104133;-79
2021/09/17 01:16:45;;;;;;;13.13;5.27;;;;;;;17.93;64.07;100463.63;126324;1099;104253;-79
2021/09/17 01:19:16;;;;;;;12.93;5.27;;;;;;;17.91;64.32;100462.75;126208;1099;104268;-79
2021/09/17 01:21:47;;;;;;;12.53;4.77;;;;;;;17.91;64.37;100459.22;126378;1099;104255;-79
2021/09/17 01:24:17;;;;;;;15.10;5.63;;;;;;;17.89;64.45;100453.90;126327;1099;104204;-80
2021/09/17 01:26:48;;;;;;;13.47;5.30;;;;;;;17.89;64.50;100445.94;126382;1099;104146;-79
2021/09/17 01:29:19;;;;;;;14.13;5.60;;;;;;;17.88;64.46;100443.23;126252;1099;104172;-79
2021/09/17 01:31:51;;;;;;;14.67;6.07;;;;;;;17.84;64.58;100430.82;126302;1099;104261;-80
2021/09/17 01:34:26;;;;;;;19.33;6.40;;;;;;;17.81;64.46;100428.16;126352;1099;104143;-79
2021/09/17 01:36:59;;;;;;;18.97;6.77;;;;;;;17.79;64.77;100423.75;126314;1099;104730;-79
2021/09/17 01:39:30;;;;;;;18.90;6.60;;;;;;;17.78;64.88;100421.09;126291;1095;104162;-79
2021/09/17 01:42:00;;;;;;;14.00;5.97;;;;;;;17.77;64.80;100421.95;126313;1099;104654;-79
2021/09/17 01:44:37;;;;;;;22.07;7.47;;;;;;;17.74;64.94;100412.20;126296;1099;104166;-77
2021/09/17 01:47:09;;;;;;;18.57;6.67;;;;;;;17.73;64.93;100409.53;126306;1099;104152;-79
2021/09/17 01:49:39;;;;;;;17.17;5.97;;;;;;;17.73;65.18;100414.84;126295;1099;104142;-79
2021/09/17 01:52:10;;;;;;;14.97;6.70;;;;;;;17.73;65.15;100414.84;126374;1099;104166;-79
2021/09/17 01:54:42;;;;;;;13.90;6.30;;;;;;;17.73;65.41;100406.88;126337;1099;104208;-81
2021/09/17 01:57:13;;;;;;;16.00;5.90;;;;;;;17.71;65.57;100404.22;126307;1097;104149;-80
2021/09/17 01:59:43;;;;;;;14.90;6.57;;;;;;;17.69;65.39;100398.03;126275;1099;104156;-80
2021/09/17 02:02:14;;;;;;;17.90;6.00;;;;;;;17.66;65.61;100402.45;126262;1099;104143;-79
2021/09/17 02:04:45;;;;;;;13.67;6.20;;;;;;;17.67;65.83;100396.23;126335;1099;104146;-80
2021/09/17 02:07:16;;;;;;;17.73;5.90;;;;;;;17.65;65.69;100382.09;126285;1099;104345;-79
2021/09/17 02:09:47;;;;;;;17.00;6.00;;;;;;;17.64;65.89;100382.95;126272;1099;105521;-81
2021/09/17 02:12:18;;;;;;;17.53;6.60;;;;;;;17.63;66.00;100382.08;126342;1098;104168;-80
2021/09/17 02:14:49;;;;;;;16.63;6.20;;;;;;;17.60;66.27;100377.63;126352;1099;104242;-79
2021/09/17 02:17:21;;;;;;;13.77;5.73;;;;;;;17.59;66.32;100377.62;126366;1098;104140;-79
2021/09/17 02:19:52;;;;;;;12.07;5.85;;;;;;;17.56;66.07;100377.61;126302;1099;104169;-80
2021/09/17 02:22:23;;;;;;;15.60;6.27;;;;;;;17.55;66.47;100376.73;126334;1099;104137;-79
2021/09/17 02:24:54;;;;;;;14.50;5.90;;;;;;;17.56;66.57;100374.95;126349;1098;104140;-80
2021/09/17 02:27:25;;;;;;;14.30;6.13;;;;;;;17.56;66.71;100373.21;126351;1099;104184;-80
2021/09/17 02:29:55;;;;;;;15.37;5.90;;;;;;;17.57;66.68;100374.09;126324;1098;104255;-79
2021/09/17 02:32:26;;;;;;;15.20;6.50;;;;;;;17.57;66.48;100372.31;126350;1099;104242;-79
2021/09/17 02:34:57;;;;;;;14.43;6.53;;;;;;;17.57;66.64;100374.97;126321;1099;104168;-80
2021/09/17 02:37:28;;;;;;;15.70;6.10;;;;;;;17.60;66.58;100382.06;126345;1099;104242;-79
2021/09/17 02:39:58;;;;;;;12.63;6.10;;;;;;;17.60;66.69;100366.14;126310;1099;104175;-79
2021/09/17 02:42:29;;;;;;;13.75;6.40;;;;;;;17.60;66.84;100372.33;126356;1099;104158;-79
2021/09/17 02:45:00;;;;;;;13.70;6.03;;;;;;;17.59;67.08;100365.27;126297;1099;104168;-79
2021/09/17 02:47:31;;;;;;;14.00;6.17;;;;;;;17.59;67.54;100361.70;126303;1099;104328;-79
2021/09/17 02:50:02;;;;;;;15.37;5.77;;;;;;;17.57;67.10;100356.39;126278;1099;104239;-80
2021/09/17 02:52:33;;;;;;;14.27;5.63;;;;;;;17.57;67.09;100351.09;126334;1096;104185;-79
2021/09/17 02:55:09;;;;;;;15.50;5.97;;;;;;;17.56;67.33;100359.95;126313;1099;104168;-80
2021/09/17 02:57:41;;;;;;;17.30;6.33;;;;;;;17.55;67.39;100358.16;126339;1099;104140;-79
2021/09/17 03:00:13;;;;;;;16.90;5.90;;;;;;;17.54;67.55;100353.72;126194;1099;104207;-79
2021/09/17 03:02:44;;;;;;;17.87;6.63;;;;;;;17.54;67.93;100350.20;126335;1099;104166;-79
2021/09/17 03:05:16;;;;;;;18.20;6.20;;;;;;;17.52;67.95;100344.88;126264;1099;104434;-79
2021/09/17 03:07:47;;;;;;;16.73;6.33;;;;;;;17.52;67.78;100350.19;126355;1099;104146;-79
2021/09/17 03:10:18;;;;;;;15.13;6.50;;;;;;;17.52;68.20;100344.01;126327;1099;104232;-80
2021/09/17 03:12:48;;;;;;;16.90;6.77;;;;;;;17.52;68.16;100351.97;126323;1099;104666;-78
2021/09/17 03:15:19;;;;;;;16.37;6.47;;;;;;;17.49;68.00;100339.56;126364;1099;104242;-78
2021/09/17 03:17:50;;;;;;;16.57;6.50;;;;;;;17.48;68.56;100345.73;126305;1099;104197;-79
2021/09/17 03:20:21;;;;;;;18.07;6.80;;;;;;;17.48;68.27;100344.86;126303;1097;104243;-80
2021/09/17 03:22:51;;;;;;;16.27;6.73;;;;;;;17.49;68.41;100343.99;126345;1098;104152;-79
2021/09/17 03:25:22;;;;;;;20.07;7.13;;;;;;;17.48;68.62;100355.47;126319;1099;104156;-78
2021/09/17 03:27:53;;;;;;;15.77;6.40;;;;;;;17.45;69.07;100351.02;126333;1099;104238;-78
2021/09/17 03:30:24;;;;;;;17.30;6.90;;;;;;;17.46;69.11;100349.28;126284;1099;104172;-77
2021/09/17 03:32:54;;;;;;;17.67;6.80;;;;;;;17.43;68.90;100345.71;126356;1099;104144;-79
2021/09/17 03:35:25;;;;;;;15.97;5.87;;;;;;;17.45;69.34;100350.15;126325;1099;104225;-79
2021/09/17 03:37:56;;;;;;;19.17;6.77;;;;;;;17.44;69.16;100343.97;126321;1099;104143;-78
2021/09/17 03:40:27;;;;;;;13.13;6.03;;;;;;;17.45;69.04;100343.06;126351;1099;104230;-79
2021/09/17 03:42:57;;;;;;;17.20;6.00;;;;;;;17.44;69.49;100343.97;126278;1099;112853;-79
2021/09/17 03:45:31;;;;;;;15.77;6.33;;;;;;;17.47;69.99;100341.33;126325;1099;104156;-79
2021/09/17 03:48:07;;;;;;;14.90;5.80;;;;;;;17.49;69.60;100336.91;126374;1099;104166;-80
2021/09/17 03:50:38;;;;;;;18.87;5.83;;;;;;;17.52;69.61;100341.36;126324;1098;104485;-80
2021/09/17 03:53:10;;;;;;;16.50;6.00;;;;;;;17.57;69.35;100342.25;126318;1099;104243;-80
2021/09/17 03:55:41;;;;;;;16.47;6.30;;;;;;;17.60;69.53;100337.84;126354;1099;104210;-79
2021/09/17 03:58:13;;;;;;;20.73;7.00;;;;;;;17.64;69.73;100344.06;126386;1099;104140;-79
2021/09/17 04:00:43;;;;;;;17.43;6.20;;;;;;;17.67;69.49;100333.47;126269;1099;104159;-78
2021/09/17 04:03:14;;;;;;;15.00;6.67;;;;;;;17.70;69.58;100335.22;126137;1099;104198;-80
2021/09/17 04:05:45;;;;;;;16.67;6.47;;;;;;;17.69;69.63;100326.39;126328;1099;104143;-79
2021/09/17 04:08:16;;;;;;;16.37;6.20;;;;;;;17.69;69.67;100325.52;126318;1099;104258;-78
2021/09/17 04:10:46;;;;;;;16.77;6.40;;;;;;;17.70;69.78;100325.52;126218;1099;104357;-78
2021/09/17 04:13:17;;;;;;;16.65;6.20;;;;;;;17.73;69.95;100320.22;126180;1099;104246;-77
2021/09/17 04:15:48;;;;;;;15.03;5.77;;;;;;;17.76;70.16;100319.33;126225;1099;104143;-78
2021/09/17 04:18:18;;;;;;;18.80;7.00;;;;;;;17.79;70.03;100317.59;126127;1099;104272;-77
2021/09/17 04:20:49;;;;;;;23.70;7.30;;;;;;;17.85;70.12;100314.05;126277;1099;104146;-78
2021/09/17 04:23:20;;;;;;;36.20;7.20;;;;;;;17.88;70.24;100310.52;126239;1097;104258;-77
2021/09/17 04:25:51;;;;;;;41.67;8.07;;;;;;;17.89;70.22;100307.91;126181;1099;104216;-78
2021/09/17 04:28:22;;;;;;;22.17;7.40;;;;;;;17.92;70.14;100309.67;126156;1099;104204;-77
2021/09/17 04:30:52;;;;;;;12.77;5.77;;;;;;;17.94;70.73;100303.48;126184;1099;104210;-77
2021/09/17 04:33:23;;;;;;;21.13;7.53;;;;;;;17.95;70.39;100297.31;126234;1099;104264;-77
2021/09/17 04:35:54;;;;;;;18.00;6.43;;;;;;;18.00;70.53;100299.06;126337;1098;104201;-77
2021/09/17 04:38:25;;;;;;;22.20;7.57;;;;;;;18.03;70.62;100305.30;126286;1099;104725;-77
2021/09/17 04:40:55;;;;;;;17.07;7.20;;;;;;;18.10;70.96;100306.18;126155;1099;104322;-78
2021/09/17 04:43:27;;;;;;;18.17;6.80;;;;;;;18.17;70.85;100300.01;126127;1099;104296;-78
2021/09/17 04:45:57;;;;;;;15.77;6.80;;;;;;;18.23;70.88;100302.67;126147;1099;104672;-79
2021/09/17 04:48:28;;;;;;;18.70;6.90;;;;;;;18.29;70.65;100305.34;126170;1099;104393;-79
2021/09/17 04:50:59;;;;;;;21.95;7.05;;;;;;;18.38;71.00;100306.22;126090;1098;104872;-80
2021/09/17 04:53:30;;;;;;;16.23;7.60;;;;;;;18.44;70.85;100303.56;125366;1099;104280;-78
2021/09/17 04:56:01;;;;;;;16.85;6.90;;;;;;;18.52;70.85;100296.47;126086;1099;104290;-79
2021/09/17 04:58:32;;;;;;;14.63;6.73;;;;;;;18.59;70.72;100300.00;126067;1099;104220;-79
2021/09/17 05:01:03;;;;;;;19.33;7.90;;;;;;;18.64;71.31;100306.22;126087;1099;104182;-79
2021/09/17 05:03:33;;;;;;;19.30;7.57;;;;;;;18.68;71.02;100308.88;125993;1099;104351;-79
2021/09/17 05:06:04;;;;;;;23.03;7.70;;;;;;;18.76;70.71;100308.88;126100;1099;104438;-79
2021/09/17 05:08:38;;;;;;;20.40;7.23;;;;;;;18.82;70.94;100307.96;126194;1099;104293;-80
2021/09/17 05:11:09;;;;;;;19.17;7.47;;;;;;;18.91;71.40;100313.30;126166;1099;104672;-80
2021/09/17 05:13:40;;;;;;;18.77;7.93;;;;;;;19.03;71.15;100313.28;126173;1096;104171;-80
2021/09/17 05:16:11;;;;;;;15.10;6.30;;;;;;;19.14;71.36;100304.41;126097;1098;104351;-79
2021/09/17 05:18:43;;;;;;;18.37;7.20;;;;;;;19.21;71.00;100306.14;126243;1099;104143;-80
2021/09/17 05:21:15;;;;;;;12.33;6.17;;;;;;;19.28;71.55;100299.92;126285;1098;101889;-79
2021/09/17 05:23:46;;;;;;;14.10;5.90;;;;;;;19.31;70.91;100291.94;126189;1099;104197;-80
2021/09/17 05:26:16;;;;;;;14.97;6.03;;;;;;;19.35;71.13;100293.70;126304;1099;104143;-80
2021/09/17 05:28:50;;;;;;;19.03;6.63;;;;;;;19.39;71.84;100299.89;126302;1099;104236;-80
2021/09/17 05:31:22;;;;;;;16.33;6.47;;;;;;;19.44;71.80;100291.89;126136;1099;104242;-80
2021/09/17 05:33:55;;;;;;;16.60;6.93;;;;;;;19.49;71.15;100293.63;126135;1099;104223;-79
2021/09/17 05:36:29;;;;;;;14.07;6.23;;;;;;;19.59;71.63;100294.49;126100;1099;104168;-78
2021/09/17 05:39:02;;;;;;;16.02;6.28;;;;;;;19.67;71.00;100284.69;126040;1099;104247;-78
2021/09/17 05:41:36;;;;;;;14.03;5.90;;;;;;;19.71;71.67;100275.80;126160;1099;104325;-78
2021/09/17 05:44:12;;;;;;;13.93;6.43;;;;;;;19.75;72.08;100280.20;126121;1099;104618;-78
2021/09/17 05:46:46;;;;;;;12.40;5.77;;;;;;;19.78;71.90;100278.47;126058;1099;104179;-77
2021/09/17 05:49:22;;;;;;;14.27;6.27;;;;;;;19.80;71.61;100274.00;126153;1098;104136;-77
2021/09/17 05:51:58;;;;;;;19.13;6.40;;;;;;;19.81;70.93;100275.78;126128;1099;104262;-76
2021/09/17 05:54:32;;;;;;;19.40;6.83;;;;;;;19.83;71.62;100277.52;126141;1097;104073;-76
2021/09/17 05:57:06;;;;;;;16.07;6.27;;;;;;;19.83;71.95;100272.20;126185;1099;104169;-75
2021/09/17 05:59:37;;;;;;;16.90;6.83;;;;;;;19.86;71.22;100273.97;126202;1097;104242;-76
2021/09/17 06:02:11;;;;;;;15.13;6.10;;;;;;;19.91;71.68;100274.81;126034;1099;104175;-77
2021/09/17 06:04:44;;;;;;;15.13;6.57;;;;;;;19.96;71.55;100269.46;126177;1099;104146;-77
2021/09/17 06:07:15;;;;;;;15.10;6.40;;;;;;;20.03;71.21;100261.42;126070;1099;104322;-76
2021/09/17 06:09:48;;;;;;;16.37;6.57;;;;;;;20.15;71.98;100256.89;126059;1099;104245;-76
2021/09/17 06:12:23;;;;;;;14.10;6.17;;;;;;;20.28;72.05;100239.93;126062;1099;104414;-78
2021/09/17 06:14:58;;;;;;;12.43;5.80;;;;;;;20.39;71.40;100243.38;125962;1099;104172;-77
2021/09/17 06:20:26;;;;;;;11.23;5.80;;;;;;;20.67;71.14;100232.50;126255;1099;104216;-77
2021/09/17 06:22:58;;;;;;;17.00;6.27;;;;;;;20.82;70.91;100240.34;126088;1099;104294;-77
2021/09/17 06:25:31;;;;;;;15.27;6.53;;;;;;;20.96;70.28;100236.66;126001;1099;104192;-77
2021/09/17 06:28:07;;;;;;;14.33;6.70;;;;;;;21.09;70.49;100224.05;126089;1099;104153;-76
2021/09/17 06:30:40;;;;;;;14.23;6.70;;;;;;;21.22;69.99;100224.77;126099;1099;104169;-75
2021/09/17 06:33:15;;;;;;;14.90;6.73;;;;;;;21.32;70.36;100216.63;126074;1099;104229;-75
2021/09/17 06:35:48;;;;;;;14.28;6.55;;;;;;;21.43;70.46;100212.95;125953;1097;104146;-76
2021/09/17 06:38:19;;;;;;;16.40;6.92;;;;;;;21.50;70.40;100214.65;126154;1099;104125;-78
2021/09/17 06:40:55;;;;;;;13.30;6.00;;;;;;;21.57;69.48;100221.68;126037;1099;104179;-77
2021/09/17 06:43:28;;;;;;;11.33;6.10;;;;;;;21.68;69.83;100210.84;126070;1099;104178;-79
2021/09/17 06:46:01;;;;;;;14.70;6.53;;;;;;;21.80;69.57;100216.01;126072;1099;104149;-77
2021/09/17 06:48:35;;;;;;;13.60;6.65;;;;;;;21.92;69.54;100217.59;126072;1099;104175;-76
2021/09/17 06:51:09;;;;;;;15.10;5.93;;;;;;;22.05;69.64;100212.96;126255;1099;104220;-78
2021/09/17 06:53:43;;;;;;;12.33;6.40;;;;;;;22.18;69.04;100200.27;126056;1099;104271;-77
2021/09/17 06:56:20;;;;;;;16.23;6.80;;;;;;;22.25;68.55;100199.23;126162;1099;104217;-77
2021/09/17 06:58:51;;;;;;;12.87;6.67;;;;;;;22.30;68.77;100194.75;126027;1099;104666;-77
2021/09/17 07:01:25;;;;;;;14.73;7.03;;;;;;;22.32;68.36;100206.29;126087;1096;104300;-77
2021/09/17 07:03:56;;;;;;;15.10;6.33;;;;;;;22.30;67.72;100202.77;125901;1099;104262;-76
2021/09/17 07:06:32;;;;;;;12.33;6.63;;;;;;;22.30;67.57;100197.42;126183;1099;104265;-78
2021/09/17 07:09:09;;;;;;;14.30;6.57;;;;;;;22.32;67.99;100195.59;126272;1099;104144;-78
2021/09/17 07:11:44;;;;;;;14.17;7.10;;;;;;;22.38;67.59;100192.81;126051;1099;104152;-78
2021/09/17 07:14:22;;;;;;;16.17;6.83;;;;;;;22.48;67.49;100189.98;126167;1099;104245;-80
2021/09/17 07:16:58;;;;;;;12.57;6.30;;;;;;;22.53;67.33;100180.08;126159;1098;104255;-77
2021/09/17 07:19:28;;;;;;;;;;;;;;;22.56;65.65;100182.69;126185;1099;104153;-78
2021/09/17 07:22:05;;;;;;;13.70;6.35;;;;;;;22.61;66.56;100180.84;126322;1099;104165;-79
2021/09/17 07:24:40;;;;;;;12.80;6.50;;;;;;;22.68;66.52;100181.59;126250;1099;104287;-78
2021/09/17 07:27:13;;;;;;;13.87;6.83;;;;;;;22.71;66.49;100177.05;126075;1099;104809;-78
2021/09/17 07:29:47;;;;;;;12.67;6.67;;;;;;;22.70;65.64;100172.60;126164;1099;104149;-79
2021/09/17 07:32:19;;;;;;;13.05;7.08;;;;;;;22.72;65.37;100167.22;126167;1099;104267;-78
2021/09/17 07:34:52;;;;;;;13.70;7.00;;;;;;;22.74;65.25;100166.30;126178;1099;104169;-76
2021/09/17 07:37:25;;;;;;;13.67;6.37;;;;;;;22.80;64.99;100171.52;126203;1099;104165;-76
2021/09/17 07:39:59;;;;;;;16.80;7.00;;;;;;;22.87;65.30;100172.27;126097;1099;104335;-77
2021/09/17 07:42:33;;;;;;;14.15;6.97;;;;;;;23.01;65.38;100166.64;126240;1099;104241;-79
2021/09/17 07:45:07;;;;;;;14.13;6.90;;;;;;;23.07;64.54;100168.31;126157;1098;104169;-77
2021/09/17 07:47:38;;;;;;;11.63;6.33;;;;;;;23.16;64.56;100168.16;126232;1099;104133;-77
2021/09/17 07:50:12;;;;;;;13.23;6.50;;;;;;;23.18;64.15;100168.99;126281;1099;104166;-77
2021/09/17 07:52:44;;;;;;;15.83;6.85;;;;;;;23.20;63.70;100171.64;126303;1099;104245;-78
2021/09/17 07:55:20;;;;;;;15.03;7.33;;;;;;;23.19;63.54;100170.77;126181;1099;104296;-76
2021/09/17 07:57:53;;;;;;;15.57;6.97;;;;;;;23.26;63.62;100164.34;126147;1097;104140;-77
2021/09/17 08:00:25;;;;;;;17.90;7.20;;;;;;;23.32;63.48;100160.66;126126;1099;104571;-78
2021/09/17 08:02:58;;;;;;;13.70;7.27;;;;;;;23.40;63.51;100149.78;126259;1099;104338;-79
2021/09/17 08:05:31;;;;;;;16.87;7.33;;;;;;;23.49;63.29;100154.93;126161;1099;104303;-78
2021/09/17 08:08:03;;;;;;;14.53;6.60;;;;;;;23.60;62.90;100152.00;126121;1099;105204;-77
2021/09/17 08:10:36;;;;;;;18.53;7.53;;;;;;;23.78;62.91;100161.38;126136;1099;104265;-78
2021/09/17 08:13:07;;;;;;;12.53;6.87;;;;;;;24.00;61.97;100149.26;126248;1099;104139;-78
2021/09/17 08:15:39;;;;;;;13.47;7.07;;;;;;;24.17;62.22;100143.47;126238;1099;104206;-78
2021/09/17 08:18:13;;;;;;;13.00;7.00;;;;;;;24.35;61.08;100147.45;125909;1099;104846;-78
2021/09/17 08:20:50;;;;;;;18.10;7.50;;;;;;;24.42;60.56;100140.14;126049;1099;104178;-77
2021/09/17 08:23:23;;;;;;;15.23;7.00;;;;;;;24.48;60.24;100139.97;126038;1099;104162;-76
2021/09/17 08:25:59;;;;;;;16.85;7.40;;;;;;;24.52;59.47;100140.76;126027;1099;104238;-78
2021/09/17 08:28:34;;;;;;;17.92;7.05;;;;;;;24.65;59.12;100136.86;126185;1099;104175;-77
2021/09/17 08:31:06;;;;;;;14.37;7.07;;;;;;;24.84;59.45;100128.25;126107;1099;104360;-77
2021/09/17 08:33:42;;;;;;;13.20;6.67;;;;;;;24.90;58.43;100125.39;126207;1098;104271;-77
2021/09/17 08:36:21;;;;;;;17.60;7.13;;;;;;;24.97;57.90;100116.24;126198;1099;104601;-78
2021/09/17 08:38:55;;;;;;;14.63;7.60;;;;;;;25.01;57.93;100127.75;126112;1099;104201;-77
2021/09/17 08:41:27;;;;;;;13.90;6.90;;;;;;;25.02;57.88;100116.11;126194;1099;104312;-78
2021/09/17 08:44:01;;;;;;;16.10;7.30;;;;;;;25.08;58.27;100116.79;126178;1099;104261;-77
2021/09/17 08:46:39;;;;;;;15.10;7.30;;;;;;;25.12;57.46;100107.73;126127;1099;104162;-78
2021/09/17 08:49:15;;;;;;;21.10;7.90;;;;;;;25.24;57.44;100093.06;126242;1099;112201;-78
2021/09/17 08:51:52;;;;;;;13.93;7.33;;;;;;;25.42;57.33;100088.92;126264;1099;104290;-79
2021/09/17 08:54:25;;;;;;;15.47;7.87;;;;;;;25.70;56.93;100093.39;126216;1099;104137;-77
2021/09/17 08:57:01;;;;;;;23.00;7.70;;;;;;;25.95;56.91;100092.56;126146;1098;104303;-76
2021/09/17 08:59:34;;;;;;;13.57;6.97;;;;;;;26.11;56.60;100090.25;126151;1099;104142;-75
2021/09/17 09:02:22;;;;;;;12.33;6.93;;;;;;;26.19;55.07;100085.47;126171;1098;104287;-76
2021/09/17 09:05:07;;;;;;;16.33;7.40;;;;;;;26.33;55.96;100085.88;125992;1099;104263;-77
2021/09/17 09:07:46;;;;;;;16.23;7.40;;;;;;;26.40;55.56;100073.08;125993;1099;104316;-76
2021/09/17 09:10:19;;;;;;;12.80;6.85;;;;;;;26.43;55.68;100080.13;125995;1098;104622;-78
2021/09/17 09:12:56;;;;;;;11.33;6.45;;;;;;;26.53;55.14;100076.19;125880;1099;104238;-78
2021/09/17 09:15:30;;;;;;;12.67;6.60;;;;;;;26.46;53.70;100072.84;125972;1099;104235;-77
2021/09/17 09:18:08;;;;;;;13.47;6.80;;;;;;;26.40;54.92;100072.17;125886;1099;104213;-77
2021/09/17 09:20:41;;;;;;;14.43;7.17;;;;;;;26.36;53.90;100074.98;126077;1099;104143;-77
2021/09/17 09:23:21;;;;;;;13.50;7.37;;;;;;;26.33;54.04;100060.77;126112;1099;104271;-78
2021/09/17 09:26:05;;;;;;;15.33;6.80;;;;;;;26.45;54.37;100054.95;126192;1099;104227;-79
2021/09/17 09:28:43;;;;;;;13.37;6.83;;;;;;;26.62;54.41;100056.14;126114;1099;104147;-79
2021/09/17 09:31:17;;;;;;;16.77;6.87;;;;;;;26.81;54.23;100046.44;126161;1099;104313;-77
2021/09/17 09:33:52;;;;;;;13.57;7.13;;;;;;;26.97;53.50;100052.09;126218;1099;104169;-77
2021/09/17 09:36:28;;;;;;;15.67;6.80;;;;;;;27.16;53.68;100045.98;126063;1099;104306;-79
2021/09/17 09:39:01;;;;;;;15.83;7.73;;;;;;;27.30;53.54;100035.55;126186;1099;104169;-79
2021/09/17 09:41:34;;;;;;;13.90;6.90;;;;;;;27.35;52.24;100041.64;126290;1099;104278;-78
2021/09/17 09:44:14;;;;;;;14.63;7.10;;;;;;;27.28;51.57;100042.79;126227;1099;104621;-78
2021/09/17 09:46:50;;;;;;;12.77;6.20;;;;;;;27.31;51.66;100033.72;126164;1099;104217;-76
2021/09/17 09:49:29;;;;;;;13.40;6.77;;;;;;;27.38;51.73;100040.66;126136;1099;104345;-78
2021/09/17 09:52:06;;;;;;;16.33;7.03;;;;;;;27.47;51.81;100031.30;126163;1098;104137;-75
2021/09/17 09:54:39;;;;;;;17.20;7.43;;;;;;;27.51;51.44;100033.80;126014;1099;104191;-77
2021/09/17 09:57:09;;;;;;;;;;;;;;;27.55;50.21;100027.34;126240;1099;104153;-78
2021/09/17 09:59:42;;;;;;;14.30;6.53;;;;;;;27.64;50.31;100030.58;126020;1099;104152;-77
2021/09/17 10:02:18;;;;;;;17.90;7.10;;;;;;;27.70;50.38;100022.23;125920;1099;104223;-80
2021/09/17 10:04:53;;;;;;;14.43;6.53;;;;;;;27.74;49.52;100029.27;125887;1099;104214;-80
2021/09/17 10:07:29;;;;;;;14.90;6.43;;;;;;;27.77;48.85;100021.91;125885;1099;104250;-79
2021/09/17 10:09:58;;;;;;;;;;;;;;;27.85;48.81;100021.58;125319;1099;104334;-78
2021/09/17 10:12:33;;;;;;;15.17;6.10;;;;;;;27.90;48.42;100016.84;125162;1099;104181;-78
2021/09/17 10:15:05;;;;;;;13.40;6.50;;;;;;;27.77;46.99;100002.17;125034;1099;104340;-78
2021/09/17 10:17:39;;;;;;;10.33;6.30;;;;;;;27.68;46.74;100000.74;125059;1099;104287;-78
2021/09/17 10:20:14;;;;;;;15.57;6.60;;;;;;;27.65;47.24;100000.01;125275;1099;104435;-78
2021/09/17 10:22:46;;;;;;;16.77;7.17;;;;;;;27.71;47.38;100010.53;125917;1099;104415;-78
2021/09/17 10:25:20;;;;;;;18.37;6.70;;;;;;;27.81;47.47;100017.25;125256;1099;104152;-79
2021/09/17 10:28:07;;;;;;;10.97;6.50;;;;;;;27.94;47.49;100005.00;126046;1099;104255;-78
2021/09/17 10:30:41;;;;;;;11.53;6.47;;;;;;;27.86;46.42;99999.08;125123;1102;104634;-79
2021/09/17 10:33:25;;;;;;;14.50;6.70;;;;;;;27.82;46.73;99992.06;125086;1103;104172;-79
2021/09/17 10:35:56;;;;;;;19.43;6.97;;;;;;;27.85;46.69;99989.23;125248;1102;104386;-80
2021/09/17 10:38:30;;;;;;;15.40;7.23;;;;;;;27.88;45.71;99981.00;125236;1102;104380;-78
2021/09/17 10:41:04;;;;;;;;;;;;;;;27.95;44.64;99981.63;125242;1102;104322;-78
2021/09/17 10:43:39;;;;;;;13.70;6.87;;;;;;;28.13;46.13;99972.72;125389;1099;104328;-78
2021/09/17 10:46:29;;;;;;;13.77;7.43;;;;;;;28.23;45.92;99967.77;125900;1099;104520;-79
2021/09/17 10:49:01;;;;;;;15.60;6.80;;;;;;;28.23;45.70;99975.86;125929;1099;104191;-78
2021/09/17 10:51:41;;;;;;;12.93;6.37;;;;;;;28.19;45.01;99962.58;125319;1099;104482;-77
2021/09/17 10:54:19;;;;;;;15.53;6.77;;;;;;;28.09;44.96;99963.00;126078;1099;104092;-79
2021/09/17 10:57:06;;;;;;;16.37;6.80;;;;;;;28.06;44.02;99956.88;126097;1099;104172;-78
2021/09/17 10:59:52;;;;;;;15.67;7.00;;;;;;;28.02;44.62;99950.77;125167;1100;104178;-76
2021/09/17 11:02:42;;;;;;;16.13;7.20;;;;;;;28.12;44.55;99940.42;126183;1099;104573;-75
2021/09/17 11:05:23;;;;;;;21.10;7.07;;;;;;;28.22;44.38;99952.55;126194;1099;104173;-75
2021/09/17 11:07:55;;;;;;;16.60;7.03;;;;;;;28.26;44.02;99943.34;126241;1099;104261;-77
2021/09/17 11:10:33;;;;;;;13.87;6.97;;;;;;;28.30;43.94;99930.61;126239;1099;104226;-76
2021/09/17 11:13:09;;;;;;;16.13;6.70;;;;;;;28.35;43.53;99931.27;126215;1099;104280;-77
2021/09/17 11:15:42;;;;;;;19.33;7.10;;;;;;;28.40;43.58;99933.74;126283;1099;104143;-77
2021/09/17 11:18:20;;;;;;;15.17;6.20;;;;;;;28.48;43.66;99934.25;126208;1099;104143;-78
2021/09/17 11:20:53;;;;;;;13.60;7.30;;;;;;;28.50;43.44;99927.84;126209;1099;104197;-79
2021/09/17 11:23:40;;;;;;;17.73;7.23;;;;;;;28.51;43.61;99921.47;126209;1099;104283;-79
2021/09/17 11:26:17;;;;;;;15.47;7.10;;;;;;;28.42;43.19;99921.94;126160;1099;104162;-79
2021/09/17 11:29:06;;;;;;;15.43;6.80;;;;;;;28.31;43.11;99917.05;126129;1099;104306;-80
2021/09/17 11:31:43;;;;;;;17.57;6.87;;;;;;;28.24;43.34;99920.11;126165;1099;104210;-79
2021/09/17 11:34:20;;;;;;;17.83;6.43;;;;;;;28.07;42.47;99910.97;126159;1099;104166;-78